Time;durP1;ratioP1;P1;durP2;ratioP2;P2;SDS_P1;SDS_P2;PMS_P1;PMS_P2;Temp;Humidity;BMP_temperature;BMP_pressure;BME280_temperature;BME280_humidity;BME280_pressure;Samples;Min_cycle;Max_cycle;Signal;HPM_P1;HPM_P2
2021/04/05 00:00:55;;;;;;;;;;;12.00;57.10;;;;;;5027148;28;20420;-56
2021/04/05 00:03:20;;;;;;;;;;;11.90;57.10;;;;;;5028469;28;19917;-59
2021/04/05 00:05:45;;;;;;;;;;;11.90;57.10;;;;;;5029768;28;19916;-58
2021/04/05 00:08:11;;;;;;;;;;;11.80;57.20;;;;;;5027729;28;20418;-57
2021/04/05 00:10:37;;;;;;;;;;;11.80;57.20;;;;;;5027926;28;19955;-55
2021/04/05 00:13:05;;;;;;;;;;;11.80;57.20;;;;;;5025945;28;20404;-58
2021/04/05 00:15:31;;;;;;;;;;;11.80;57.30;;;;;;5027775;28;19916;-58
2021/04/05 00:17:56;;;;;;;;;;;11.80;57.30;;;;;;5027901;28;20328;-56
2021/04/05 00:20:23;;;;;;;;;;;11.70;57.20;;;;;;5028799;28;19917;-58
2021/04/05 00:22:48;;;;;;;;;;;11.80;57.40;;;;;;5026956;28;19917;-58
2021/04/05 00:25:14;;;;;;;;;;;11.70;57.30;;;;;;5026384;28;19916;-58
2021/04/05 00:27:39;;;;;;;;;;;11.70;57.40;;;;;;5026404;28;19909;-57
2021/04/05 00:30:09;;;;;;;;;;;11.60;57.30;;;;;;5028081;28;19928;-55
2021/04/05 00:32:34;;;;;;;;;;;11.60;57.40;;;;;;5024725;28;19923;-56
2021/04/05 00:35:00;;;;;;;;;;;11.60;57.50;;;;;;5028465;28;19917;-57
2021/04/05 00:37:25;;;;;;;;;;;11.60;57.40;;;;;;5027010;28;19913;-59
2021/04/05 00:39:51;;;;;;;;;;;11.60;57.50;;;;;;5024509;28;20404;-56
2021/04/05 00:42:18;;;;;;;;;;;11.50;57.50;;;;;;5027298;28;19987;-59
2021/04/05 00:44:43;;;;;;;;;;;11.50;57.50;;;;;;5028374;28;20000;-55
2021/04/05 00:47:09;;;;;;;;;;;11.50;57.60;;;;;;5028168;28;19996;-56
2021/04/05 00:49:34;;;;;;;;;;;11.40;57.60;;;;;;5027815;28;19917;-57
2021/04/05 00:52:00;;;;;;;;;;;11.40;57.60;;;;;;5026518;28;19920;-56
2021/04/05 00:54:25;;;;;;;;;;;11.40;57.70;;;;;;5028303;28;19998;-57
2021/04/05 00:56:50;;;;;;;;;;;11.40;57.70;;;;;;5027865;28;20858;-57
2021/04/05 00:59:16;;;;;;;;;;;11.30;57.80;;;;;;5027677;28;19915;-56
2021/04/05 01:01:42;;;;;;;;;;;11.30;58.40;;;;;;5025667;28;19917;-59
2021/04/05 01:04:07;;;;;;;;;;;11.30;57.90;;;;;;5027377;28;20386;-55
2021/04/05 01:06:33;;;;;;;;;;;11.30;57.90;;;;;;5025788;28;20381;-60
2021/04/05 01:08:59;;;;;;;;;;;11.30;57.90;;;;;;5027632;28;19909;-57
2021/04/05 01:11:27;;;;;;;;;;;11.20;57.90;;;;;;5024917;28;19967;-57
2021/04/05 01:13:52;;;;;;;;;;;11.20;58.00;;;;;;5027011;28;20398;-55
2021/04/05 01:16:18;;;;;;;;;;;11.10;58.00;;;;;;5027015;28;20976;-58
2021/04/05 01:18:43;;;;;;;;;;;11.10;58.10;;;;;;5025680;28;19916;-56
2021/04/05 01:21:09;;;;;;;;;;;11.10;58.20;;;;;;5027866;28;19913;-59
2021/04/05 01:23:35;;;;;;;;;;;11.00;58.10;;;;;;5028400;28;19953;-56
2021/04/05 01:26:00;;;;;;;;;;;11.10;58.20;;;;;;5026944;28;20010;-59
2021/04/05 01:28:26;;;;;;;;;;;11.00;58.20;;;;;;5025163;28;20383;-58
2021/04/05 01:30:52;;;;;;;;;;;11.00;58.20;;;;;;5026148;28;20049;-58
2021/04/05 01:33:19;;;;;;;;;;;11.00;58.20;;;;;;5025237;28;20383;-59
2021/04/05 01:36:01;;;;;;;;;;;11.00;58.20;;;;;;5025330;28;19990;-58
2021/04/05 01:38:36;;;;;;;;;;;11.00;58.30;;;;;;5025728;28;19913;-56
2021/04/05 01:41:06;;;;;;;;;;;11.00;58.30;;;;;;5026872;28;19925;-59
2021/04/05 01:43:31;;;;;;;;;;;10.90;58.30;;;;;;5024144;28;19921;-58
2021/04/05 01:45:57;;;;;;;;;;;10.90;58.40;;;;;;5025836;28;20450;-56
2021/04/05 01:48:23;;;;;;;;;;;10.90;58.40;;;;;;5009129;28;19917;-58
2021/04/05 01:50:49;;;;;;;;;;;10.90;58.40;;;;;;5025977;28;19913;-57
2021/04/05 01:53:16;;;;;;;;;;;10.80;58.40;;;;;;5024874;28;19940;-57
2021/04/05 01:55:42;;;;;;;;;;;10.80;58.50;;;;;;5026457;28;19917;-58
2021/04/05 01:58:07;;;;;;;;;;;10.80;58.50;;;;;;5023411;28;19963;-56
2021/04/05 02:00:35;;;;;;;;;;;10.80;58.50;;;;;;5026461;28;19944;-56
2021/04/05 02:03:04;;;;;;;;;;;10.70;58.50;;;;;;5026445;28;20384;-58
2021/04/05 02:05:29;;;;;;;;;;;11.00;58.90;;;;;;5041799;28;19910;-59
2021/04/05 02:07:55;;;;;;;;;;;10.70;58.70;;;;;;5023866;28;20414;-61
2021/04/05 02:10:22;;;;;;;;;;;10.70;58.70;;;;;;5025817;28;19948;-58
2021/04/05 02:12:47;;;;;;;;;;;10.70;58.70;;;;;;5025201;28;19917;-60
2021/04/05 02:15:14;;;;;;;;;;;10.70;58.80;;;;;;5026763;28;19963;-57
2021/04/05 02:17:40;;;;;;;;;;;10.60;58.70;;;;;;5024809;28;20003;-55
2021/04/05 02:20:08;;;;;;;;;;;10.60;58.80;;;;;;5027910;28;20393;-57
2021/04/05 02:22:41;;;;;;;;;;;10.60;58.80;;;;;;5023331;28;19932;-60
2021/04/05 02:25:07;;;;;;;;;;;10.60;58.90;;;;;;5023200;28;19908;-59
2021/04/05 02:27:32;;;;;;;;;;;10.50;58.90;;;;;;5025606;28;20365;-58
2021/04/05 02:29:58;;;;;;;;;;;10.50;58.90;;;;;;5023824;28;19940;-59
2021/04/05 02:32:23;;;;;;;;;;;10.50;58.90;;;;;;5022408;28;20262;-57
2021/04/05 02:34:49;;;;;;;;;;;10.50;58.90;;;;;;5024789;28;19909;-58
2021/04/05 02:37:14;;;;;;;;;;;10.50;59.00;;;;;;5020250;28;20386;-57
2021/04/05 02:39:40;;;;;;;;;;;10.50;59.00;;;;;;5025925;28;19928;-57
2021/04/05 02:42:05;;;;;;;;;;;10.40;59.00;;;;;;5025823;28;19913;-58
2021/04/05 02:44:31;;;;;;;;;;;10.30;59.00;;;;;;5024123;28;19913;-57
2021/04/05 02:46:56;;;;;;;;;;;10.40;59.10;;;;;;5023119;28;19909;-60
2021/04/05 02:49:22;;;;;;;;;;;10.40;59.10;;;;;;5023452;28;19917;-57
2021/04/05 02:51:48;;;;;;;;;;;10.40;59.20;;;;;;5023856;28;19921;-59
2021/04/05 02:54:13;;;;;;;;;;;10.40;59.20;;;;;;5024344;28;20359;-57
2021/04/05 02:56:39;;;;;;;;;;;10.30;59.20;;;;;;5024125;28;19918;-60
2021/04/05 02:59:04;;;;;;;;;;;10.30;59.30;;;;;;5025059;28;19936;-58
2021/04/05 03:01:30;;;;;;;;;;;10.30;59.30;;;;;;5024106;28;20207;-59
2021/04/05 03:03:56;;;;;;;;;;;10.20;59.40;;;;;;5021937;28;20372;-56
2021/04/05 03:06:21;;;;;;;;;;;10.20;59.40;;;;;;5026038;28;20082;-58
2021/04/05 03:08:47;;;;;;;;;;;10.20;59.40;;;;;;5025834;28;19959;-58
2021/04/05 03:11:13;;;;;;;;;;;10.20;59.50;;;;;;5023422;28;20323;-60
2021/04/05 03:13:39;;;;;;;;;;;10.20;59.50;;;;;;5024887;28;19918;-60
2021/04/05 03:16:04;;;;;;;;;;;10.10;59.50;;;;;;5022339;28;20222;-59
2021/04/05 03:18:30;;;;;;;;;;;10.10;59.50;;;;;;5022883;28;19916;-58
2021/04/05 03:20:56;;;;;;;;;;;10.10;59.50;;;;;;5024175;28;19925;-57
2021/04/05 03:23:21;;;;;;;;;;;10.10;59.60;;;;;;5025095;28;19913;-57
2021/04/05 03:25:47;;;;;;;;;;;10.10;59.50;;;;;;5025406;28;20118;-58
2021/04/05 03:28:12;;;;;;;;;;;10.10;59.60;;;;;;5025601;28;19949;-57
2021/04/05 03:30:42;;;;;;;;;;;10.00;59.60;;;;;;5023859;28;19916;-56
2021/04/05 03:33:09;;;;;;;;;;;10.00;59.70;;;;;;5026028;28;19921;-60
2021/04/05 03:35:36;;;;;;;;;;;10.00;59.70;;;;;;5023619;28;19909;-60
2021/04/05 03:38:02;;;;;;;;;;;10.00;59.80;;;;;;5024740;28;19964;-60
2021/04/05 03:40:29;;;;;;;;;;;9.90;59.80;;;;;;5024580;28;19929;-59
2021/04/05 03:43:00;;;;;;;;;;;10.00;59.90;;;;;;5024661;28;20348;-59
2021/04/05 03:45:26;;;;;;;;;;;9.90;59.90;;;;;;5025512;28;19917;-57
2021/04/05 03:47:52;;;;;;;;;;;9.90;59.90;;;;;;5023327;28;19917;-56
2021/04/05 03:50:19;;;;;;;;;;;9.90;60.00;;;;;;5025873;28;20629;-56
2021/04/05 03:53:07;;;;;;;;;;;9.90;60.00;;;;;;5006705;28;19952;-60
2021/04/05 03:55:32;;;;;;;;;;;9.80;59.90;;;;;;5023838;28;19924;-57
2021/04/05 03:57:58;;;;;;;;;;;9.80;59.90;;;;;;5025710;28;19909;-59
2021/04/05 04:00:23;;;;;;;;;;;9.80;60.00;;;;;;5011206;28;19909;-57
2021/04/05 04:02:50;;;;;;;;;;;9.80;60.00;;;;;;5029520;28;20325;-58
2021/04/05 04:05:26;;;;;;;;;;;9.80;60.00;;;;;;5028112;28;20000;-59
2021/04/05 04:08:02;;;;;;;;;;;9.70;60.00;;;;;;5025672;28;19913;-59
2021/04/05 04:10:29;;;;;;;;;;;9.70;60.00;;;;;;5010680;28;20502;-62
2021/04/05 04:12:54;;;;;;;;;;;9.70;60.10;;;;;;5029088;28;20351;-57
2021/04/05 04:15:20;;;;;;;;;;;9.70;60.10;;;;;;5026970;28;20004;-57
2021/04/05 04:17:45;;;;;;;;;;;9.70;60.20;;;;;;5026444;28;19940;-59
2021/04/05 04:20:12;;;;;;;;;;;9.70;60.30;;;;;;5025513;28;19917;-59
2021/04/05 04:22:38;;;;;;;;;;;9.60;60.20;;;;;;5025012;28;19913;-57
2021/04/05 04:25:04;;;;;;;;;;;9.60;60.20;;;;;;5028699;28;19924;-59
2021/04/05 04:27:29;;;;;;;;;;;9.60;60.40;;;;;;5027635;28;19917;-60
2021/04/05 04:29:55;;;;;;;;;;;9.60;60.40;;;;;;5026892;28;19932;-59
2021/04/05 04:32:21;;;;;;;;;;;9.60;60.40;;;;;;5026700;28;19921;-60
2021/04/05 04:34:46;;;;;;;;;;;9.50;60.40;;;;;;5024988;28;19921;-57
2021/04/05 04:37:12;;;;;;;;;;;9.50;60.60;;;;;;5025088;28;19935;-57
2021/04/05 04:39:37;;;;;;;;;;;9.50;60.50;;;;;;5027407;28;20806;-56
2021/04/05 04:42:03;;;;;;;;;;;9.50;60.60;;;;;;5028333;28;19912;-59
2021/04/05 04:44:29;;;;;;;;;;;9.50;60.60;;;;;;5026520;28;19925;-57
2021/04/05 04:46:54;;;;;;;;;;;9.50;60.70;;;;;;5026745;28;20406;-56
2021/04/05 04:49:20;;;;;;;;;;;9.40;60.60;;;;;;5026500;28;19928;-58
2021/04/05 04:51:45;;;;;;;;;;;9.40;60.60;;;;;;5026364;28;19917;-58
2021/04/05 04:54:10;;;;;;;;;;;9.40;60.70;;;;;;5027745;28;20000;-59
2021/04/05 04:56:36;;;;;;;;;;;9.40;60.70;;;;;;5027766;28;20328;-55
2021/04/05 04:59:03;;;;;;;;;;;9.40;60.90;;;;;;5027054;28;19913;-59
2021/04/05 05:01:29;;;;;;;;;;;9.30;60.80;;;;;;5025506;28;19909;-58
2021/04/05 05:03:56;;;;;;;;;;;9.30;60.90;;;;;;5028116;28;19932;-56
2021/04/05 05:06:21;;;;;;;;;;;9.30;60.90;;;;;;5025896;28;20122;-57
2021/04/05 05:08:47;;;;;;;;;;;9.40;61.00;;;;;;5025671;28;19996;-60
2021/04/05 05:11:12;;;;;;;;;;;9.30;61.00;;;;;;5026706;28;20055;-57
2021/04/05 05:13:38;;;;;;;;;;;9.30;61.00;;;;;;5024773;28;20422;-59
2021/04/05 05:16:04;;;;;;;;;;;9.30;61.20;;;;;;5026692;28;19909;-57
2021/04/05 05:18:29;;;;;;;;;;;9.20;61.10;;;;;;5026099;28;19947;-56
2021/04/05 05:20:55;;;;;;;;;;;9.20;61.20;;;;;;5027396;28;19913;-59
2021/04/05 05:23:20;;;;;;;;;;;9.20;61.10;;;;;;5027256;28;19936;-57
2021/04/05 05:25:46;;;;;;;;;;;9.20;61.20;;;;;;5024918;28;19924;-59
2021/04/05 05:28:11;;;;;;;;;;;9.20;61.20;;;;;;5026004;28;20364;-58
2021/04/05 05:30:37;;;;;;;;;;;9.20;61.10;;;;;;5009853;28;19924;-57
2021/04/05 05:33:06;;;;;;;;;;;9.20;61.10;;;;;;5024762;28;19909;-59
2021/04/05 05:35:32;;;;;;;;;;;9.20;61.30;;;;;;5027767;28;19920;-60
2021/04/05 05:37:59;;;;;;;;;;;9.10;61.20;;;;;;5023428;28;19921;-59
2021/04/05 05:40:24;;;;;;;;;;;9.10;61.20;;;;;;5024961;28;19960;-56
2021/04/05 05:42:55;;;;;;;;;;;9.20;61.30;;;;;;5026748;28;19996;-57
2021/04/05 05:45:32;;;;;;;;;;;9.10;61.30;;;;;;5026831;28;19913;-57
2021/04/05 05:47:59;;;;;;;;;;;9.10;61.30;;;;;;5025061;28;20384;-58
2021/04/05 05:50:31;;;;;;;;;;;9.10;61.30;;;;;;5019571;28;19913;-60
2021/04/05 05:53:12;;;;;;;;;;;9.10;61.30;;;;;;5023405;28;19968;-59
2021/04/05 05:55:56;;;;;;;;;;;9.00;61.30;;;;;;5025891;28;19910;-58
2021/04/05 05:58:23;;;;;;;;;;;9.10;61.40;;;;;;5026594;28;19920;-59
2021/04/05 06:00:53;;;;;;;;;;;9.10;61.40;;;;;;5024007;28;19956;-59
2021/04/05 06:03:37;;;;;;;;;;;9.10;61.40;;;;;;5023518;28;19913;-58
2021/04/05 06:06:18;;;;;;;;;;;9.00;61.40;;;;;;5023331;28;19909;-60
2021/04/05 06:09:02;;;;;;;;;;;9.00;61.40;;;;;;5024353;28;20377;-55
2021/04/05 06:11:34;;;;;;;;;;;9.10;61.40;;;;;;5026435;28;20404;-58
2021/04/05 06:14:03;;;;;;;;;;;9.00;61.40;;;;;;5025901;28;20281;-59
2021/04/05 06:16:34;;;;;;;;;;;9.00;61.40;;;;;;5024059;28;20011;-58
2021/04/05 06:19:15;;;;;;;;;;;9.10;61.40;;;;;;5023769;28;20008;-59
2021/04/05 06:21:50;;;;;;;;;;;9.00;61.40;;;;;;5024978;28;20371;-57
2021/04/05 06:24:19;;;;;;;;;;;9.00;61.40;;;;;;5024754;28;19963;-56
2021/04/05 06:26:50;;;;;;;;;;;9.00;61.40;;;;;;5026687;28;19913;-56
2021/04/05 06:29:34;;;;;;;;;;;9.00;61.40;;;;;;5025094;28;20287;-59
2021/04/05 06:32:12;;;;;;;;;;;9.00;61.40;;;;;;5022059;28;20275;-56
2021/04/05 06:34:40;;;;;;;;;;;9.00;61.40;;;;;;5021821;28;19994;-57
2021/04/05 06:37:14;;;;;;;;;;;9.00;61.50;;;;;;5024848;28;19967;-58
2021/04/05 06:39:40;;;;;;;;;;;9.00;61.40;;;;;;5024208;28;19925;-57
2021/04/05 06:42:24;;;;;;;;;;;9.00;61.40;;;;;;5024722;28;19920;-60
2021/04/05 06:44:49;;;;;;;;;;;9.10;61.50;;;;;;5024336;28;19932;-58
2021/04/05 06:47:23;;;;;;;;;;;9.00;61.50;;;;;;5025402;28;19917;-60
2021/04/05 06:49:52;;;;;;;;;;;9.00;61.40;;;;;;5007490;28;19948;-59
2021/04/05 06:52:31;;;;;;;;;;;9.00;61.50;;;;;;5025312;28;19921;-59
2021/04/05 06:54:59;;;;;;;;;;;9.00;61.40;;;;;;5021851;28;19943;-59
2021/04/05 06:57:38;;;;;;;;;;;9.00;61.30;;;;;;5022631;28;19913;-56
2021/04/05 07:00:09;;;;;;;;;;;9.00;61.30;;;;;;5022516;28;19928;-58
2021/04/05 07:02:43;;;;;;;;;;;9.10;61.40;;;;;;5039237;28;20008;-57
2021/04/05 07:05:29;;;;;;;;;;;9.00;61.20;;;;;;5025011;28;20363;-57
2021/04/05 07:08:04;;;;;;;;;;;9.20;61.30;;;;;;5025284;28;19980;-57
2021/04/05 07:10:30;;;;;;;;;;;9.10;61.30;;;;;;5024101;28;19909;-59
2021/04/05 07:13:07;;;;;;;;;;;9.10;61.30;;;;;;5024413;28;19909;-56
2021/04/05 07:15:45;;;;;;;;;;;9.10;61.20;;;;;;5025428;28;19909;-59
2021/04/05 07:18:29;;;;;;;;;;;9.10;61.30;;;;;;5027172;28;20648;-56
2021/04/05 07:21:06;;;;;;;;;;;9.10;61.30;;;;;;5024751;28;21122;-58
2021/04/05 07:23:38;;;;;;;;;;;9.10;61.40;;;;;;5022645;28;20356;-57
2021/04/05 07:26:06;;;;;;;;;;;9.10;61.40;;;;;;5025474;28;20281;-56
2021/04/05 07:28:37;;;;;;;;;;;9.10;61.50;;;;;;5025832;28;20003;-56
2021/04/05 07:31:23;;;;;;;;;;;9.10;61.50;;;;;;5025095;28;20364;-60
2021/04/05 07:33:49;;;;;;;;;;;9.10;61.50;;;;;;5027453;28;19920;-57
2021/04/05 07:36:31;;;;;;;;;;;9.10;61.50;;;;;;5009544;28;19913;-60
2021/04/05 07:39:09;;;;;;;;;;;9.10;61.50;;;;;;5024406;28;19960;-58
2021/04/05 07:41:44;;;;;;;;;;;9.10;61.60;;;;;;5027084;28;19921;-57
2021/04/05 07:44:11;;;;;;;;;;;9.20;61.70;;;;;;5029560;28;19913;-60
2021/04/05 07:46:44;;;;;;;;;;;9.20;61.60;;;;;;5026705;28;19963;-58
2021/04/05 07:49:11;;;;;;;;;;;9.10;61.70;;;;;;5026056;28;19925;-56
2021/04/05 07:51:40;;;;;;;;;;;9.20;61.70;;;;;;5023288;28;20010;-59
2021/04/05 07:54:06;;;;;;;;;;;9.20;61.60;;;;;;5010738;28;19996;-57
2021/04/05 07:56:32;;;;;;;;;;;9.20;61.70;;;;;;5028539;28;20342;-56
2021/04/05 07:58:57;;;;;;;;;;;9.20;61.50;;;;;;5026654;28;20377;-57
2021/04/05 08:01:30;;;;;;;;;;;9.30;61.60;;;;;;5027679;28;19913;-56
2021/04/05 08:04:01;;;;;;;;;;;9.30;61.60;;;;;;5024678;28;20677;-57
2021/04/05 08:06:28;;;;;;;;;;;9.30;61.60;;;;;;5026234;28;19920;-60
2021/04/05 08:08:58;;;;;;;;;;;9.30;61.50;;;;;;5026904;28;20279;-59
2021/04/05 08:11:29;;;;;;;;;;;9.30;61.40;;;;;;5026012;28;19917;-59
2021/04/05 08:14:07;;;;;;;;;;;9.30;61.40;;;;;;5021597;28;19913;-59
2021/04/05 08:16:35;;;;;;;;;;;9.40;61.40;;;;;;5017979;28;20351;-58
2021/04/05 08:19:09;;;;;;;;;;;9.40;61.50;;;;;;5020936;28;19924;-59
2021/04/05 08:21:53;;;;;;;;;;;9.40;61.30;;;;;;5029094;28;19913;-59
2021/04/05 08:24:22;;;;;;;;;;;9.50;61.40;;;;;;5028168;28;20482;-58
2021/04/05 08:26:56;;;;;;;;;;;9.50;61.20;;;;;;5026967;28;20518;-57
2021/04/05 08:29:33;;;;;;;;;;;9.50;61.10;;;;;;5025162;28;19919;-59
2021/04/05 08:32:01;;;;;;;;;;;9.60;61.20;;;;;;5025034;28;19921;-59
2021/04/05 08:34:45;;;;;;;;;;;9.60;61.20;;;;;;5008967;28;19917;-57
2021/04/05 08:37:13;;;;;;;;;;;9.60;61.00;;;;;;5022620;28;19999;-59
2021/04/05 08:39:48;;;;;;;;;;;9.70;60.90;;;;;;5024997;28;19929;-57
2021/04/05 08:42:26;;;;;;;;;;;9.70;61.10;;;;;;5025671;28;20471;-57
2021/04/05 08:44:53;;;;;;;;;;;9.70;61.70;;;;;;5020529;28;20132;-56
2021/04/05 08:47:22;;;;;;;;;;;9.80;61.10;;;;;;5023280;28;19921;-59
2021/04/05 08:49:48;;;;;;;;;;;9.80;61.10;;;;;;5008924;28;19909;-59
2021/04/05 08:52:13;;;;;;;;;;;9.80;61.00;;;;;;5025354;28;19948;-59
2021/04/05 08:54:39;;;;;;;;;;;9.90;61.00;;;;;;5027613;28;20840;-57
2021/04/05 08:57:08;;;;;;;;;;;10.00;60.80;;;;;;5025164;28;20419;-56
2021/04/05 08:59:35;;;;;;;;;;;10.00;60.70;;;;;;5025454;28;19967;-59
2021/04/05 09:02:05;;;;;;;;;;;10.00;60.60;;;;;;5023485;28;19921;-58
2021/04/05 09:04:30;;;;;;;;;;;10.10;60.60;;;;;;5026103;28;19913;-57
2021/04/05 09:07:04;;;;;;;;;;;10.10;60.80;;;;;;5025951;28;19993;-55
2021/04/05 09:09:31;;;;;;;;;;;10.10;60.70;;;;;;5007444;28;20327;-56
2021/04/05 09:11:56;;;;;;;;;;;10.20;60.60;;;;;;5023197;28;19917;-57
2021/04/05 09:14:22;;;;;;;;;;;10.20;60.40;;;;;;5025328;28;19940;-60
2021/04/05 09:16:51;;;;;;;;;;;10.20;60.10;;;;;;5008284;28;19913;-61
2021/04/05 09:19:19;;;;;;;;;;;10.30;60.00;;;;;;5026154;28;19917;-57
2021/04/05 09:22:04;;;;;;;;;;;10.30;59.90;;;;;;5025393;28;19909;-58
2021/04/05 09:24:35;;;;;;;;;;;10.40;59.70;;;;;;5025258;28;19925;-59
2021/04/05 09:27:03;;;;;;;;;;;10.70;59.70;;;;;;5027247;28;20104;-57
2021/04/05 09:29:39;;;;;;;;;;;10.50;59.50;;;;;;5027822;28;19909;-56
2021/04/05 09:32:23;;;;;;;;;;;10.60;59.40;;;;;;5007078;28;20265;-59
2021/04/05 09:35:07;;;;;;;;;;;10.60;59.50;;;;;;5020876;28;19913;-60
2021/04/05 09:37:51;;;;;;;;;;;10.60;59.40;;;;;;5022619;28;20737;-59
2021/04/05 09:40:36;;;;;;;;;;;10.70;59.30;;;;;;5037276;28;19931;-59
2021/04/05 09:43:01;;;;;;;;;;;10.80;59.30;;;;;;5026954;28;19924;-59
2021/04/05 09:45:31;;;;;;;;;;;10.80;58.90;;;;;;5026424;28;19917;-61
2021/04/05 09:48:11;;;;;;;;;;;10.90;58.80;;;;;;5023548;28;19921;-60
2021/04/05 09:50:40;;;;;;;;;;;10.90;58.70;;;;;;5021990;28;19967;-59
2021/04/05 09:53:28;;;;;;;;;;;11.00;58.80;;;;;;5026581;28;20258;-60
2021/04/05 09:56:01;;;;;;;;;;;11.00;58.60;;;;;;5017568;28;19998;-58
2021/04/05 09:58:27;;;;;;;;;;;11.10;58.70;;;;;;5022311;28;19909;-58
2021/04/05 10:01:00;;;;;;;;;;;11.10;58.60;;;;;;5023869;28;19913;-61
2021/04/05 10:03:26;;;;;;;;;;;11.20;58.40;;;;;;5023522;28;19971;-60
2021/04/05 10:05:51;;;;;;;;;;;11.20;58.50;;;;;;5024961;28;19909;-60
2021/04/05 10:08:26;;;;;;;;;;;11.30;58.30;;;;;;5025295;28;19916;-61
2021/04/05 10:10:52;;;;;;;;;;;11.30;58.20;;;;;;5023765;28;19924;-62
2021/04/05 10:13:22;;;;;;;;;;;11.40;58.20;;;;;;5023152;28;19921;-59
2021/04/05 10:15:50;;;;;;;;;;;11.40;58.10;;;;;;5023118;28;20300;-62
2021/04/05 10:18:15;;;;;;;;;;;11.50;58.10;;;;;;5026308;28;19917;-58
2021/04/05 10:20:41;;;;;;;;;;;11.50;58.10;;;;;;5008477;28;19913;-58
2021/04/05 10:23:07;;;;;;;;;;;11.60;58.00;;;;;;5026430;28;19919;-61
2021/04/05 10:25:33;;;;;;;;;;;11.60;57.90;;;;;;5024221;28;19913;-60
2021/04/05 10:27:59;;;;;;;;;;;11.70;58.00;;;;;;5022214;28;20327;-58
2021/04/05 10:30:32;;;;;;;;;;;11.70;57.90;;;;;;5024914;28;19963;-62
2021/04/05 10:33:07;;;;;;;;;;;11.70;57.90;;;;;;5025347;28;20008;-60
2021/04/05 10:35:34;;;;;;;;;;;11.80;58.00;;;;;;5024895;28;19963;-58
2021/04/05 10:38:01;;;;;;;;;;;11.80;57.80;;;;;;5021094;28;19921;-61
2021/04/05 10:40:27;;;;;;;;;;;11.90;57.80;;;;;;5022693;28;19987;-60
2021/04/05 10:42:53;;;;;;;;;;;11.90;57.70;;;;;;5007205;28;19921;-59
2021/04/05 10:45:20;;;;;;;;;;;12.00;57.70;;;;;;5026427;28;19913;-62
2021/04/05 10:47:55;;;;;;;;;;;12.00;57.80;;;;;;4991066;28;19917;-59
2021/04/05 10:50:25;;;;;;;;;;;12.10;57.80;;;;;;5023605;28;19909;-59
2021/04/05 10:52:51;;;;;;;;;;;12.10;57.80;;;;;;5019812;28;19917;-57
2021/04/05 10:55:18;;;;;;;;;;;12.10;58.00;;;;;;5020225;28;19967;-58
2021/04/05 10:57:44;;;;;;;;;;;12.20;57.80;;;;;;5025642;28;19971;-60
2021/04/05 11:00:14;;;;;;;;;;;12.20;57.80;;;;;;5025386;28;19921;-61
2021/04/05 11:02:41;;;;;;;;;;;12.30;57.90;;;;;;5023059;28;20391;-60
2021/04/05 11:05:10;;;;;;;;;;;12.30;57.90;;;;;;5020769;28;20015;-58
2021/04/05 11:07:35;;;;;;;;;;;12.30;57.60;;;;;;5023492;28;19917;-59
2021/04/05 11:10:01;;;;;;;;;;;12.40;57.70;;;;;;5021051;28;19924;-57
2021/04/05 11:12:30;;;;;;;;;;;12.40;57.70;;;;;;5024518;28;19990;-59
2021/04/05 11:14:56;;;;;;;;;;;12.50;57.80;;;;;;5022447;28;19920;-61
2021/04/05 11:17:22;;;;;;;;;;;12.50;57.60;;;;;;5022563;28;19917;-62
2021/04/05 11:19:51;;;;;;;;;;;12.60;57.60;;;;;;5024532;28;19913;-60
2021/04/05 11:22:18;;;;;;;;;;;12.60;57.60;;;;;;5026603;28;19920;-60
2021/04/05 11:24:43;;;;;;;;;;;12.60;57.60;;;;;;5024814;28;19917;-59
2021/04/05 11:27:10;;;;;;;;;;;12.70;57.40;;;;;;5023993;28;19913;-61
2021/04/05 11:29:36;;;;;;;;;;;12.80;57.60;;;;;;5024317;28;20169;-60
2021/04/05 11:32:01;;;;;;;;;;;12.80;57.40;;;;;;5025560;28;19928;-60
2021/04/05 11:34:28;;;;;;;;;;;12.80;57.20;;;;;;5020225;28;19920;-59
2021/04/05 11:36:57;;;;;;;;;;;12.80;57.20;;;;;;5021750;28;19928;-58
2021/04/05 11:39:25;;;;;;;;;;;12.90;57.40;;;;;;5019189;28;19945;-57
2021/04/05 11:41:51;;;;;;;;;;;13.00;57.40;;;;;;5024241;28;19917;-57
2021/04/05 11:44:28;;;;;;;;;;;13.00;57.30;;;;;;5022784;28;20416;-61
2021/04/05 11:46:53;;;;;;;;;;;13.00;57.30;;;;;;5022060;28;20377;-56
2021/04/05 11:49:19;;;;;;;;;;;13.10;57.20;;;;;;5024351;28;19917;-58
2021/04/05 11:51:44;;;;;;;;;;;13.10;57.10;;;;;;5024931;28;19913;-57
2021/04/05 11:54:12;;;;;;;;;;;13.20;56.90;;;;;;5024534;28;19917;-55
2021/04/05 11:56:38;;;;;;;;;;;13.30;57.00;;;;;;5019376;28;19953;-55
2021/04/05 11:59:13;;;;;;;;;;;13.30;56.90;;;;;;5022746;28;20002;-56
2021/04/05 12:01:41;;;;;;;;;;;13.40;56.80;;;;;;5021737;28;20394;-57
2021/04/05 12:04:20;;;;;;;;;;;13.40;56.80;;;;;;5022646;28;20365;-59
2021/04/05 12:06:47;;;;;;;;;;;13.50;56.50;;;;;;5023442;28;19924;-58
2021/04/05 12:09:20;;;;;;;;;;;13.50;56.20;;;;;;5022634;28;20331;-56
2021/04/05 12:11:47;;;;;;;;;;;13.70;55.90;;;;;;5021848;28;19917;-57
2021/04/05 12:14:14;;;;;;;;;;;13.70;55.30;;;;;;5018136;28;19921;-60
2021/04/05 12:16:40;;;;;;;;;;;13.80;55.10;;;;;;5020945;28;19932;-61
2021/04/05 12:19:06;;;;;;;;;;;13.90;54.50;;;;;;5025417;28;19913;-62
2021/04/05 12:21:32;;;;;;;;;;;14.00;53.90;;;;;;5036003;28;19927;-58
2021/04/05 12:24:00;;;;;;;;;;;14.10;53.50;;;;;;5023283;28;20265;-58
2021/04/05 12:26:26;;;;;;;;;;;14.20;53.40;;;;;;5023818;28;19921;-58
2021/04/05 12:28:52;;;;;;;;;;;14.20;53.80;;;;;;5027629;28;19924;-57
2021/04/05 12:31:17;;;;;;;;;;;14.40;53.30;;;;;;5026263;28;20326;-57
2021/04/05 12:33:43;;;;;;;;;;;14.40;53.30;;;;;;5010494;28;19913;-58
2021/04/05 12:36:08;;;;;;;;;;;14.50;53.20;;;;;;5025855;28;19909;-56
2021/04/05 12:38:36;;;;;;;;;;;14.50;53.20;;;;;;5023256;28;20395;-58
2021/04/05 12:41:06;;;;;;;;;;;14.60;53.20;;;;;;5029332;28;19937;-57
2021/04/05 12:43:34;;;;;;;;;;;14.60;53.20;;;;;;5025940;28;19953;-55
2021/04/05 12:46:00;;;;;;;;;;;14.70;52.90;;;;;;5033329;28;19993;-57
2021/04/05 12:48:26;;;;;;;;;;;14.70;52.60;;;;;;5035526;28;19923;-58
2021/04/05 12:51:01;;;;;;;;;;;14.70;52.50;;;;;;5021898;28;19918;-57
2021/04/05 12:53:28;;;;;;;;;;;14.80;52.60;;;;;;5004600;28;19924;-55
2021/04/05 12:55:54;;;;;;;;;;;14.80;52.40;;;;;;4997763;28;19917;-56
2021/04/05 12:58:45;;;;;;;;;;;14.90;52.50;;;;;;5019324;28;19917;-59
2021/04/05 13:01:11;;;;;;;;;;;14.90;52.20;;;;;;5027233;28;19913;-55
2021/04/05 13:03:38;;;;;;;;;;;15.00;52.20;;;;;;5030914;28;20317;-57
2021/04/05 13:06:05;;;;;;;;;;;15.00;52.00;;;;;;5025205;28;19920;-57
2021/04/05 13:08:49;;;;;;;;;;;15.10;52.00;;;;;;5032776;28;19959;-59
2021/04/05 13:11:19;;;;;;;;;;;15.10;51.70;;;;;;5034132;28;19975;-56
2021/04/05 13:13:48;;;;;;;;;;;15.10;51.70;;;;;;5031567;28;20357;-55
2021/04/05 13:16:18;;;;;;;;;;;15.20;51.30;;;;;;5007587;28;20454;-57
2021/04/05 13:18:46;;;;;;;;;;;15.20;50.90;;;;;;5030582;28;19917;-59
2021/04/05 13:21:11;;;;;;;;;;;15.20;50.80;;;;;;5033425;28;19963;-59
2021/04/05 13:23:39;;;;;;;;;;;15.30;50.60;;;;;;5029306;28;20335;-59
2021/04/05 13:26:06;;;;;;;;;;;15.30;50.70;;;;;;5029813;28;20007;-55
2021/04/05 13:28:31;;;;;;;;;;;15.30;50.60;;;;;;5044192;28;20036;-59
2021/04/05 13:31:04;;;;;;;;;;;15.30;50.70;;;;;;5028395;28;20032;-58
2021/04/05 13:33:29;;;;;;;;;;;15.40;50.70;;;;;;5029398;28;19909;-57
2021/04/05 13:36:05;;;;;;;;;;;15.40;50.70;;;;;;5029123;28;20418;-57
2021/04/05 13:38:31;;;;;;;;;;;15.40;50.20;;;;;;5028623;28;19920;-58
2021/04/05 13:41:02;;;;;;;;;;;15.40;50.40;;;;;;5030981;28;19925;-59
2021/04/05 13:43:27;;;;;;;;;;;15.40;50.40;;;;;;5028801;28;20353;-56
2021/04/05 13:45:52;;;;;;;;;;;15.50;50.20;;;;;;5032239;28;19915;-59
2021/04/05 13:48:21;;;;;;;;;;;15.40;50.40;;;;;;5035368;28;20391;-57
2021/04/05 13:50:47;;;;;;;;;;;15.50;50.30;;;;;;5030242;28;19913;-55
2021/04/05 13:53:13;;;;;;;;;;;15.50;50.10;;;;;;5014505;28;19913;-56
2021/04/05 13:55:40;;;;;;;;;;;15.50;49.80;;;;;;5027990;28;20007;-57
2021/04/05 13:58:07;;;;;;;;;;;15.50;50.00;;;;;;5022852;28;19917;-55
2021/04/05 14:00:32;;;;;;;;;;;15.60;49.20;;;;;;5026349;28;20232;-55
2021/04/05 14:03:12;;;;;;;;;;;15.50;49.20;;;;;;5026399;28;19963;-57
2021/04/05 14:05:41;;;;;;;;;;;15.60;49.00;;;;;;5014656;28;19968;-56
2021/04/05 14:08:12;;;;;;;;;;;15.60;48.50;;;;;;5029792;28;19913;-56
2021/04/05 14:10:37;;;;;;;;;;;15.60;48.70;;;;;;5030400;28;19913;-59
2021/04/05 14:13:03;;;;;;;;;;;15.60;48.30;;;;;;5029141;28;20372;-60
2021/04/05 14:15:29;;;;;;;;;;;15.60;48.10;;;;;;5028870;28;19940;-59
2021/04/05 14:18:13;;;;;;;;;;;15.60;48.10;;;;;;5028259;28;19913;-55
2021/04/05 14:20:39;;;;;;;;;;;15.60;47.90;;;;;;5030558;28;20565;-56
2021/04/05 14:23:11;;;;;;;;;;;15.60;47.60;;;;;;5028866;28;19909;-56
2021/04/05 14:25:54;;;;;;;;;;;15.60;47.80;;;;;;5020990;28;20126;-57
2021/04/05 14:28:19;;;;;;;;;;;15.70;47.80;;;;;;5028942;28;19909;-57
2021/04/05 14:30:46;;;;;;;;;;;15.70;47.40;;;;;;5030781;28;19920;-58